createdAt,value
2018-09-14T00:00:05.655Z,4.60
2018-09-14T00:02:33.520Z,4.67
2018-09-14T00:05:01.202Z,4.57
2018-09-14T00:07:28.885Z,4.97
2018-09-14T00:09:56.612Z,5.20
2018-09-14T00:12:24.298Z,5.43
2018-09-14T00:14:51.887Z,6.17
2018-09-14T00:17:19.636Z,6.60
2018-09-14T00:19:47.415Z,6.70
2018-09-14T00:22:14.998Z,6.97
2018-09-14T00:24:42.630Z,6.90
2018-09-14T00:27:10.525Z,7.43
2018-09-14T00:32:05.497Z,5.47
2018-09-14T00:34:33.197Z,5.73
2018-09-14T00:37:00.859Z,5.72
2018-09-14T00:39:28.924Z,5.53
2018-09-14T00:41:56.714Z,6.05
2018-09-14T00:44:24.492Z,5.47
2018-09-14T00:46:52.054Z,5.70
2018-09-14T00:49:19.860Z,5.20
2018-09-14T00:56:42.196Z,6.80
2018-09-14T00:59:09.882Z,8.45
2018-09-14T01:01:37.647Z,9.03
2018-09-14T01:04:05.335Z,8.78
2018-09-14T01:06:33.020Z,9.30
2018-09-14T01:09:00.839Z,10.17
2018-09-14T01:11:28.567Z,10.40
2018-09-14T01:14:02.590Z,8.77
2018-09-14T01:16:30.059Z,7.35
2018-09-14T01:18:57.898Z,7.08
2018-09-14T01:21:25.570Z,6.60
2018-09-14T01:23:53.323Z,5.90
2018-09-14T01:26:21.035Z,6.23
2018-09-14T01:28:48.790Z,6.07
2018-09-14T01:31:16.580Z,6.03
2018-09-14T01:33:44.055Z,5.87
2018-09-14T01:36:11.864Z,6.47
2018-09-14T01:38:40.302Z,7.07
2018-09-14T01:41:08.184Z,7.97
2018-09-14T01:43:35.971Z,9.53
2018-09-14T01:46:03.815Z,9.20
2018-09-14T01:48:31.574Z,9.45
2018-09-14T01:50:59.324Z,9.40
2018-09-14T01:55:54.567Z,8.93
2018-09-14T01:58:22.221Z,8.90
2018-09-14T02:00:49.726Z,9.30
2018-09-14T02:03:17.577Z,7.72
2018-09-14T02:05:45.121Z,6.70
2018-09-14T02:08:12.963Z,7.57
2018-09-14T02:13:07.718Z,6.53
2018-09-14T02:15:35.639Z,7.23
2018-09-14T02:18:03.579Z,6.43
2018-09-14T02:20:31.071Z,7.43
2018-09-14T02:22:58.731Z,8.10
2018-09-14T02:25:26.483Z,8.55
2018-09-14T02:27:54.282Z,9.73
2018-09-14T02:30:21.859Z,9.75
2018-09-14T02:32:49.583Z,10.47
2018-09-14T02:35:17.295Z,10.00
2018-09-14T02:37:44.903Z,10.67
2018-09-14T02:40:12.768Z,10.47
2018-09-14T02:42:40.494Z,8.93
2018-09-14T02:45:08.214Z,8.37
2018-09-14T02:49:16.728Z,10.60
2018-09-14T02:51:44.458Z,9.27
2018-09-14T02:54:12.043Z,10.87
2018-09-14T02:56:39.823Z,9.40
2018-09-14T02:59:07.579Z,7.73
2018-09-14T03:01:35.603Z,8.27
2018-09-14T03:04:03.403Z,8.13
2018-09-14T03:06:31.222Z,7.30
2018-09-14T03:08:59.022Z,7.00
2018-09-14T03:11:26.739Z,6.77
2018-09-14T03:16:21.575Z,6.20
2018-09-14T03:18:49.340Z,6.40
2018-09-14T03:23:44.667Z,10.50
2018-09-14T03:26:12.586Z,9.80
2018-09-14T03:28:40.882Z,11.30
2018-09-14T03:31:08.567Z,11.40
2018-09-14T03:36:03.311Z,11.78
2018-09-14T03:38:30.938Z,10.80
2018-09-14T03:40:58.619Z,10.48
2018-09-14T03:43:26.409Z,7.97
2018-09-14T03:45:54.397Z,7.50
2018-09-14T03:48:22.003Z,7.90
2018-09-14T03:50:49.722Z,7.10
2018-09-14T03:53:17.454Z,7.67
2018-09-14T03:55:45.068Z,7.40
2018-09-14T03:58:12.735Z,6.87
2018-09-14T04:03:19.834Z,8.60
2018-09-14T04:05:47.559Z,9.70
2018-09-14T04:08:15.291Z,10.23
2018-09-14T04:10:42.871Z,10.97
2018-09-14T04:13:11.002Z,10.80
2018-09-14T04:15:38.714Z,10.73
2018-09-14T04:18:06.478Z,11.10
2018-09-14T04:22:41.995Z,11.68
2018-09-14T04:25:09.650Z,10.00
2018-09-14T04:27:37.402Z,10.33
2018-09-14T04:30:05.055Z,8.47
2018-09-14T04:32:32.914Z,7.40
2018-09-14T04:35:00.591Z,7.60
2018-09-14T04:37:28.055Z,7.87
2018-09-14T04:39:55.697Z,7.40
2018-09-14T04:42:23.403Z,7.40
2018-09-14T04:44:51.003Z,7.55
2018-09-14T04:47:18.819Z,7.17
2018-09-14T04:52:13.567Z,7.60
2018-09-14T04:54:41.390Z,8.98
2018-09-14T04:57:08.953Z,10.00
2018-09-14T04:59:36.994Z,10.30
2018-09-14T05:04:31.734Z,11.63
2018-09-14T05:06:59.465Z,12.03
2018-09-14T05:09:27.054Z,12.13
2018-09-14T05:11:54.807Z,11.88
2018-09-14T05:14:22.571Z,10.23
2018-09-14T05:16:50.154Z,9.03
2018-09-14T05:19:17.851Z,9.23
2018-09-14T05:21:45.539Z,8.73
2018-09-14T05:26:56.846Z,8.15
2018-09-14T05:29:24.571Z,8.07
2018-09-14T05:31:52.289Z,8.40
2018-09-14T05:34:19.953Z,10.30
2018-09-14T05:39:14.906Z,12.80
2018-09-14T05:41:42.638Z,11.93
2018-09-14T05:44:10.959Z,22.80
2018-09-14T05:46:38.585Z,26.83
2018-09-14T05:49:06.287Z,27.90
2018-09-14T05:54:01.295Z,26.97
2018-09-14T05:58:56.006Z,30.23
2018-09-14T06:03:52.920Z,29.27
2018-09-14T06:06:20.651Z,30.00
2018-09-14T06:08:48.488Z,29.52
2018-09-14T06:11:16.018Z,30.77
2018-09-14T06:13:43.875Z,29.33
2018-09-14T06:16:11.575Z,29.97
2018-09-14T06:18:39.059Z,30.32
2018-09-14T06:21:06.350Z,31.02
2018-09-14T06:23:33.955Z,31.83
2018-09-14T06:26:01.839Z,32.48
2018-09-14T06:28:29.578Z,30.43
2018-09-14T06:30:57.379Z,26.20
2018-09-14T06:33:24.954Z,28.47
2018-09-14T06:35:52.573Z,31.15
2018-09-14T06:38:20.386Z,29.48
2018-09-14T06:40:48.354Z,30.33
2018-09-14T06:43:15.915Z,29.50
2018-09-14T06:45:43.938Z,30.77
2018-09-14T06:48:15.519Z,30.95
2018-09-14T06:50:43.007Z,29.77
2018-09-14T06:53:10.926Z,31.77
2018-09-14T06:55:38.559Z,33.07
2018-09-14T06:58:06.290Z,31.50
2018-09-14T07:00:33.970Z,31.77
2018-09-14T07:03:01.579Z,30.97
2018-09-14T07:05:29.003Z,30.97
2018-09-14T07:07:56.826Z,31.83
2018-09-14T07:10:24.560Z,31.37
2018-09-14T07:12:52.310Z,31.93
2018-09-14T07:15:19.856Z,31.73
2018-09-14T07:17:47.965Z,31.57
2018-09-14T07:22:42.814Z,31.97
2018-09-14T07:25:10.531Z,32.40
2018-09-14T07:27:38.375Z,31.80
2018-09-14T07:30:06.020Z,32.10
2018-09-14T07:32:33.659Z,33.30
2018-09-14T07:35:01.379Z,31.50
2018-09-14T07:37:28.958Z,30.23
2018-09-14T07:39:57.218Z,31.50
2018-09-14T07:42:25.338Z,34.67
2018-09-14T07:44:52.898Z,32.10
2018-09-14T07:47:20.802Z,31.87
2018-09-14T07:49:48.529Z,33.47
2018-09-14T07:52:16.262Z,26.75
2018-09-14T07:54:43.866Z,30.07
2018-09-14T07:57:11.678Z,30.10
2018-09-14T07:59:39.295Z,29.33
2018-09-14T08:02:06.882Z,28.50
2018-09-14T08:04:34.914Z,28.60
2018-09-14T08:07:02.570Z,27.67
2018-09-14T08:09:30.067Z,28.83
2018-09-14T08:11:57.803Z,28.52
2018-09-14T08:14:25.464Z,27.90
2018-09-14T08:16:53.014Z,28.40
2018-09-14T08:19:20.723Z,28.63
2018-09-14T08:21:48.545Z,27.13
2018-09-14T08:24:16.050Z,29.97
2018-09-14T08:26:43.938Z,29.98
2018-09-14T08:29:11.811Z,27.30
2018-09-14T08:31:39.532Z,29.57
2018-09-14T08:34:07.296Z,27.53
2018-09-14T08:36:35.367Z,28.50
2018-09-14T08:39:03.994Z,24.43
2018-09-14T08:41:31.669Z,21.85
2018-09-14T08:43:59.562Z,27.00
2018-09-14T08:46:27.431Z,29.70
2018-09-14T08:48:55.219Z,28.37
2018-09-14T08:51:23.042Z,27.50
2018-09-14T08:53:50.744Z,28.80
2018-09-14T08:56:18.541Z,29.50
2018-09-14T08:58:46.510Z,31.10
2018-09-14T09:01:14.180Z,29.87
2018-09-14T09:03:41.962Z,28.43
2018-09-14T09:06:09.634Z,29.23
2018-09-14T09:08:37.459Z,29.87
2018-09-14T09:13:32.306Z,29.65
2018-09-14T09:15:59.887Z,29.17
2018-09-14T09:18:27.666Z,28.92
2018-09-14T09:20:55.298Z,30.83
2018-09-14T09:23:22.910Z,30.37
2018-09-14T09:25:50.617Z,30.20
2018-09-14T09:28:18.187Z,30.57
2018-09-14T09:30:45.863Z,29.02
2018-09-14T09:33:13.602Z,30.53
2018-09-14T09:35:41.304Z,28.47
2018-09-14T09:38:09.300Z,30.93
2018-09-14T09:40:36.867Z,30.77
2018-09-14T09:43:04.824Z,28.30
2018-09-14T09:45:32.551Z,29.83
2018-09-14T09:48:00.355Z,29.90
2018-09-14T09:50:27.959Z,29.63
2018-09-14T09:55:22.790Z,29.73
2018-09-14T09:57:50.535Z,28.73
2018-09-14T10:00:24.174Z,28.60
2018-09-14T10:02:57.639Z,27.53
2018-09-14T10:05:31.320Z,30.30
2018-09-14T10:07:58.906Z,25.60
2018-09-14T10:10:26.580Z,28.87
2018-09-14T10:12:54.230Z,30.72
2018-09-14T10:15:21.771Z,27.77
2018-09-14T10:17:49.527Z,26.90
2018-09-14T10:20:17.303Z,27.40
2018-09-14T10:22:45.027Z,27.53
2018-09-14T10:27:39.874Z,26.43
2018-09-14T10:30:07.644Z,27.90
2018-09-14T10:32:35.575Z,28.23
2018-09-14T10:35:03.252Z,28.33
2018-09-14T10:37:30.881Z,29.30
2018-09-14T10:39:58.670Z,27.07
2018-09-14T10:45:13.014Z,29.80
2018-09-14T10:47:40.706Z,28.53
2018-09-14T10:50:08.567Z,30.60
2018-09-14T10:52:36.167Z,29.43
2018-09-14T10:55:03.814Z,28.90
2018-09-14T10:57:31.518Z,29.25
2018-09-14T11:02:26.439Z,26.07
2018-09-14T11:04:54.002Z,28.23
2018-09-14T11:07:21.870Z,27.07
2018-09-14T11:09:49.610Z,28.70
2018-09-14T11:12:17.415Z,27.83
2018-09-14T11:14:45.214Z,28.67
2018-09-14T11:17:12.778Z,27.40
2018-09-14T11:19:40.487Z,27.93
2018-09-14T11:22:08.011Z,27.53
2018-09-14T11:27:03.000Z,22.93
2018-09-14T11:29:30.649Z,23.52
2018-09-14T11:31:58.478Z,24.20
2018-09-14T11:34:26.527Z,24.52
2018-09-14T11:36:54.239Z,27.23
2018-09-14T11:41:48.947Z,23.30
2018-09-14T11:44:16.579Z,23.57
2018-09-14T11:46:44.347Z,21.67
2018-09-14T11:49:12.003Z,24.30
2018-09-14T11:54:07.484Z,20.67
2018-09-14T11:56:35.958Z,19.10
2018-09-14T11:59:04.350Z,21.10
2018-09-14T12:01:32.013Z,20.20
2018-09-14T12:03:59.971Z,21.30
2018-09-14T12:08:54.838Z,20.40
2018-09-14T12:11:22.672Z,20.27
2018-09-14T12:13:50.719Z,18.73
2018-09-14T12:16:18.135Z,19.37
2018-09-14T12:18:45.846Z,19.27
2018-09-14T12:26:07.998Z,17.57
2018-09-14T12:28:35.839Z,14.70
2018-09-14T12:31:03.603Z,14.40
2018-09-14T12:33:31.463Z,16.52
2018-09-14T12:35:59.019Z,18.03
2018-09-14T12:38:26.744Z,18.60
2018-09-14T12:40:54.415Z,16.60
2018-09-14T12:43:22.063Z,14.63
2018-09-14T12:45:49.951Z,20.23
2018-09-14T12:48:17.603Z,16.77
2018-09-14T12:50:45.379Z,13.80
2018-09-14T12:55:40.010Z,17.13
2018-09-14T13:03:01.847Z,12.80
2018-09-14T13:05:29.522Z,12.17
2018-09-14T13:07:57.354Z,12.63
2018-09-14T13:10:25.579Z,12.33
2018-09-14T13:12:53.391Z,11.40
2018-09-14T13:15:20.921Z,11.10
2018-09-14T13:17:48.570Z,11.35
2018-09-14T13:20:16.207Z,11.35
2018-09-14T13:22:43.826Z,11.80
2018-09-14T13:25:11.588Z,12.15
2018-09-14T13:30:06.975Z,12.00
2018-09-14T13:35:01.784Z,12.67
2018-09-14T13:37:29.519Z,11.83
2018-09-14T13:39:57.040Z,11.67
2018-09-14T13:42:24.799Z,11.28
2018-09-14T13:44:52.532Z,12.83
2018-09-14T13:47:20.063Z,12.30
2018-09-14T13:49:47.804Z,10.53
2018-09-14T13:52:15.491Z,11.10
2018-09-14T13:58:39.594Z,10.72
2018-09-14T14:01:07.076Z,10.78
2018-09-14T14:03:34.792Z,9.98
2018-09-14T14:06:02.887Z,9.97
2018-09-14T14:08:30.579Z,10.72
2018-09-14T14:10:58.234Z,10.50
2018-09-14T14:13:25.774Z,10.47
2018-09-14T14:15:53.491Z,10.53
2018-09-14T14:18:21.007Z,9.23
2018-09-14T14:20:48.616Z,9.53
2018-09-14T14:23:16.425Z,10.17
2018-09-14T14:28:11.302Z,10.13
2018-09-14T14:30:39.503Z,9.50
2018-09-14T14:33:07.607Z,9.47
2018-09-14T14:35:35.429Z,10.27
2018-09-14T14:38:03.217Z,10.00
2018-09-14T14:42:57.943Z,11.73
2018-09-14T14:45:25.661Z,10.83
2018-09-14T14:47:53.298Z,10.60
2018-09-14T14:50:21.035Z,10.37
2018-09-14T14:53:05.804Z,12.53
2018-09-14T14:55:33.545Z,10.93
2018-09-14T14:58:01.056Z,13.47
2018-09-14T15:02:55.990Z,18.07
2018-09-14T15:05:23.599Z,17.92
2018-09-14T15:07:51.298Z,16.07
2018-09-14T15:10:18.974Z,18.17
2018-09-14T15:15:14.019Z,16.80
2018-09-14T15:17:41.796Z,17.00
2018-09-14T15:20:09.523Z,17.17
2018-09-14T15:22:37.201Z,15.72
2018-09-14T15:25:04.992Z,14.67
2018-09-14T15:27:32.738Z,15.03
2018-09-14T15:30:00.423Z,15.53
2018-09-14T15:32:28.043Z,14.78
2018-09-14T15:34:55.743Z,13.83
2018-09-14T15:37:23.810Z,13.73
2018-09-14T15:39:51.503Z,12.53
2018-09-14T15:42:19.067Z,14.28
2018-09-14T15:44:46.720Z,14.83
2018-09-14T15:47:14.456Z,13.57
2018-09-14T15:49:41.987Z,13.88
2018-09-14T15:52:09.738Z,12.70
2018-09-14T15:54:37.495Z,14.37
2018-09-14T15:57:05.311Z,12.87
2018-09-14T15:59:33.017Z,12.13
2018-09-14T16:02:00.735Z,11.43
2018-09-14T16:04:28.519Z,11.53
2018-09-14T16:06:56.175Z,10.93
2018-09-14T16:09:23.934Z,12.40
2018-09-14T16:11:51.903Z,13.57
2018-09-14T16:14:19.975Z,14.05
2018-09-14T16:19:14.845Z,12.43
2018-09-14T16:21:43.563Z,12.70
2018-09-14T16:24:11.173Z,13.00
2018-09-14T16:29:06.771Z,13.03
2018-09-14T16:31:34.598Z,11.67
2018-09-14T16:34:02.388Z,10.73
2018-09-14T16:38:57.291Z,10.43
2018-09-14T16:41:25.064Z,10.30
2018-09-14T16:43:53.192Z,10.37
2018-09-14T16:46:20.742Z,12.00
2018-09-14T16:48:48.503Z,11.65
2018-09-14T16:51:16.409Z,11.83
2018-09-14T16:53:44.471Z,11.30
2018-09-14T16:56:12.290Z,10.77
2018-09-14T16:58:40.019Z,10.33
2018-09-14T17:01:07.879Z,10.77
2018-09-14T17:03:35.571Z,11.47
2018-09-14T17:06:03.050Z,10.88
2018-09-14T17:08:30.919Z,10.53
2018-09-14T17:10:58.850Z,11.67
2018-09-14T17:13:26.551Z,10.87
2018-09-14T17:15:54.291Z,10.08
2018-09-14T17:18:22.003Z,11.03
2018-09-14T17:20:49.867Z,11.13
2018-09-14T17:23:17.582Z,10.63
2018-09-14T17:25:45.293Z,11.05
2018-09-14T17:28:13.069Z,9.63
2018-09-14T17:30:40.767Z,10.07
2018-09-14T17:33:08.519Z,11.73
2018-09-14T17:35:36.101Z,15.15
2018-09-14T17:38:03.820Z,13.07
2018-09-14T17:40:36.233Z,11.80
2018-09-14T17:43:04.063Z,11.53
2018-09-14T17:45:31.823Z,10.28
2018-09-14T17:47:59.575Z,10.97
2018-09-14T17:50:27.235Z,11.30
2018-09-14T17:52:54.754Z,10.10
2018-09-14T17:55:22.462Z,11.40
2018-09-14T17:57:50.335Z,9.20
2018-09-14T18:00:17.911Z,9.30
2018-09-14T18:02:45.622Z,8.37
2018-09-14T18:05:13.413Z,9.27
2018-09-14T18:07:41.013Z,9.70
2018-09-14T18:12:35.974Z,9.33
2018-09-14T18:15:03.906Z,9.18
2018-09-14T18:17:31.826Z,8.93
2018-09-14T18:19:59.584Z,8.55
2018-09-14T18:24:54.387Z,8.53
2018-09-14T18:27:22.050Z,8.97
2018-09-14T18:29:49.668Z,8.75
2018-09-14T18:32:17.559Z,9.03
2018-09-14T18:34:45.531Z,9.03
2018-09-14T18:37:13.213Z,11.73
2018-09-14T18:42:07.949Z,9.37
2018-09-14T18:47:02.709Z,9.23
2018-09-14T18:49:30.495Z,9.20
2018-09-14T18:51:58.718Z,9.27
2018-09-14T18:54:26.567Z,8.90
2018-09-14T18:56:54.299Z,8.88
2018-09-14T18:59:22.014Z,7.90
2018-09-14T19:01:49.802Z,8.60
2018-09-14T19:04:17.527Z,8.87
2018-09-14T19:06:45.038Z,8.30
2018-09-14T19:09:12.819Z,8.45
2018-09-14T19:11:40.554Z,7.83
2018-09-14T19:14:08.423Z,8.55
2018-09-14T19:16:36.212Z,8.07
2018-09-14T19:19:03.981Z,8.50
2018-09-14T19:23:59.003Z,7.67
2018-09-14T19:26:26.755Z,8.38
2018-09-14T19:28:54.646Z,7.60
2018-09-14T19:31:22.319Z,7.27
2018-09-14T19:33:50.031Z,8.03
2018-09-14T19:36:17.678Z,7.77
2018-09-14T19:38:45.566Z,7.80
2018-09-14T19:41:13.083Z,7.27
2018-09-14T19:43:40.878Z,7.50
2018-09-14T19:46:08.568Z,7.90
2018-09-14T19:48:36.306Z,7.27
2018-09-14T19:53:31.023Z,8.20
2018-09-14T19:55:58.834Z,7.73
2018-09-14T19:58:26.567Z,8.55
2018-09-14T20:03:45.739Z,7.20
2018-09-14T20:06:13.588Z,8.20
2018-09-14T20:08:41.354Z,7.03
2018-09-14T20:11:08.994Z,7.12
2018-09-14T20:16:03.963Z,7.77
2018-09-14T20:18:31.797Z,8.05
2018-09-14T20:20:59.427Z,8.40
2018-09-14T20:23:27.011Z,7.55
2018-09-14T20:25:54.815Z,8.00
2018-09-14T20:30:49.974Z,7.77
2018-09-14T20:33:17.635Z,7.62
2018-09-14T20:35:45.363Z,8.30
2018-09-14T20:38:13.010Z,7.73
2018-09-14T20:43:08.017Z,7.57
2018-09-14T20:45:35.847Z,7.22
2018-09-14T20:48:03.563Z,6.63
2018-09-14T20:50:31.291Z,7.00
2018-09-14T20:52:58.928Z,7.10
2018-09-14T20:55:26.691Z,7.30
2018-09-14T20:57:54.471Z,6.13
2018-09-14T21:00:23.895Z,6.85
2018-09-14T21:02:51.830Z,7.10
2018-09-14T21:05:19.378Z,7.20
2018-09-14T21:07:46.971Z,7.77
2018-09-14T21:10:14.667Z,7.67
2018-09-14T21:12:42.514Z,6.70
2018-09-14T21:15:10.447Z,7.43
2018-09-14T21:17:38.011Z,7.30
2018-09-14T21:22:32.879Z,6.90
2018-09-14T21:25:00.570Z,6.60
2018-09-14T21:27:28.383Z,7.12
2018-09-14T21:29:56.447Z,6.90
2018-09-14T21:32:24.414Z,5.73
2018-09-14T21:34:52.054Z,6.70
2018-09-14T21:37:19.839Z,6.23
2018-09-14T21:39:47.561Z,6.92
2018-09-14T21:42:15.417Z,7.37
2018-09-14T21:47:12.880Z,7.25
2018-09-14T21:49:40.574Z,7.10
2018-09-14T21:52:08.043Z,7.33
2018-09-14T21:54:35.723Z,7.83
2018-09-14T21:57:03.598Z,7.63
2018-09-14T21:59:31.535Z,7.20
2018-09-14T22:01:59.458Z,7.10
2018-09-14T22:04:27.338Z,7.20
2018-09-14T22:06:55.052Z,6.77
2018-09-14T22:09:22.751Z,7.00
2018-09-14T22:11:50.511Z,6.80
2018-09-14T22:14:18.340Z,6.70
2018-09-14T22:16:45.947Z,6.83
2018-09-14T22:21:40.807Z,6.87
2018-09-14T22:24:08.575Z,6.97
2018-09-14T22:26:36.390Z,6.60
2018-09-14T22:31:31.055Z,6.97
2018-09-14T22:33:58.827Z,6.53
2018-09-14T22:36:26.743Z,7.03
2018-09-14T22:38:54.719Z,6.90
2018-09-14T22:41:22.507Z,7.42
2018-09-14T22:43:50.177Z,7.53
2018-09-14T22:46:17.907Z,7.00
2018-09-14T22:48:46.870Z,7.40
2018-09-14T22:51:14.702Z,7.40
2018-09-14T22:53:42.493Z,7.33
2018-09-14T22:56:10.462Z,6.90
2018-09-14T22:58:38.571Z,7.20
2018-09-14T23:06:07.006Z,6.90
2018-09-14T23:08:34.602Z,7.10
2018-09-14T23:11:02.422Z,7.50
2018-09-14T23:15:58.798Z,7.03
2018-09-14T23:18:27.046Z,7.60
2018-09-14T23:20:54.711Z,7.37
2018-09-14T23:23:22.729Z,7.23
2018-09-14T23:25:51.206Z,7.73
2018-09-14T23:28:48.291Z,7.30
2018-09-14T23:31:15.878Z,6.90
2018-09-14T23:33:43.574Z,6.87
2018-09-14T23:36:11.390Z,7.30
2018-09-14T23:38:39.194Z,7.43
2018-09-14T23:41:06.766Z,6.85
2018-09-14T23:43:34.479Z,6.30
2018-09-14T23:46:02.217Z,6.90
2018-09-14T23:48:29.878Z,6.80
2018-09-14T23:50:57.567Z,6.90
2018-09-14T23:55:52.492Z,7.35
2018-09-14T23:58:20.007Z,6.93
